Time,TemperatureF,DewpointF,PressureIn,WindDirection,WindDirectionDegrees,WindSpeedMPH,WindSpeedGustMPH,Humidity,HourlyPrecipIn,Conditions,Clouds,dailyrainin,SoftwareType,DateUTC
2013-08-09 00:06:00,59.0,50.0,29.75,North,4,0.0,-999.0,72,-99.99,,,0.01,weatherlink.com 1.10,2013-08-09 06:06:00,
2013-08-09 00:21:00,57.2,50.0,29.75,North,4,0.0,-999.0,76,-99.99,,,0.00,weatherlink.com 1.10,2013-08-09 06:21:00,
2013-08-09 00:36:00,56.6,50.0,29.74,North,4,0.0,-999.0,79,-99.99,,,0.00,weatherlink.com 1.10,2013-08-09 06:36:00,
2013-08-09 00:51:00,55.9,50.0,29.75,North,4,0.0,-999.0,80,-99.99,,,0.00,weatherlink.com 1.10,2013-08-09 06:51:00,
2013-08-09 01:06:00,56.5,50.0,29.75,North,4,0.0,-999.0,78,-99.99,,,0.00,weatherlink.com 1.10,2013-08-09 07:06:00,
2013-08-09 01:21:00,57.3,49.0,29.73,North,4,0.0,-999.0,74,-99.99,,,0.00,weatherlink.com 1.10,2013-08-09 07:21:00,
2013-08-09 01:36:00,57.8,49.0,29.71,North,359,0.0,-999.0,73,-99.99,,,0.00,weatherlink.com 1.10,2013-08-09 07:36:00,
2013-08-09 01:51:00,57.6,49.0,29.72,North,359,0.0,-999.0,73,-99.99,,,0.00,weatherlink.com 1.10,2013-08-09 07:51:00,
2013-08-09 02:06:00,57.2,49.0,29.73,North,359,0.0,-999.0,73,-99.99,,,0.00,weatherlink.com 1.10,2013-08-09 08:06:00,
2013-08-09 02:21:00,57.0,49.0,29.73,North,359,0.0,-999.0,74,-99.99,,,0.00,weatherlink.com 1.10,2013-08-09 08:21:00,
2013-08-09 02:36:00,55.9,49.0,29.71,North,359,0.0,-999.0,78,-99.99,,,0.00,weatherlink.com 1.10,2013-08-09 08:36:00,
2013-08-09 02:51:00,55.1,49.0,29.71,North,359,2.0,-999.0,80,-99.99,,,0.00,weatherlink.com 1.10,2013-08-09 08:51:00,
2013-08-09 03:06:00,55.1,49.0,29.71,North,359,0.0,-999.0,80,-99.99,,,0.00,weatherlink.com 1.10,2013-08-09 09:06:00,
2013-08-09 03:21:00,54.5,48.0,29.72,North,359,2.0,-999.0,80,-99.99,,,0.00,weatherlink.com 1.10,2013-08-09 09:21:00,
2013-08-09 03:36:00,53.9,48.0,29.77,NE,51,3.0,-999.0,81,-99.99,,,0.00,weatherlink.com 1.10,2013-08-09 09:36:00,
2013-08-09 03:51:00,53.5,48.0,29.77,NE,51,1.0,-999.0,82,-99.99,,,0.00,weatherlink.com 1.10,2013-08-09 09:51:00,
2013-08-09 04:06:00,53.5,48.0,29.77,NE,51,1.0,-999.0,82,-99.99,,,0.00,weatherlink.com 1.10,2013-08-09 10:06:00,
2013-08-09 04:21:00,53.3,48.0,29.77,NE,49,0.0,-999.0,82,-99.99,,,0.00,weatherlink.com 1.10,2013-08-09 10:21:00,
2013-08-09 04:36:00,53.5,48.0,29.76,NE,45,1.0,-999.0,81,-99.99,,,0.00,weatherlink.com 1.10,2013-08-09 10:36:00,
2013-08-09 04:51:00,53.2,48.0,29.76,NE,49,2.0,-999.0,82,-99.99,,,0.00,weatherlink.com 1.10,2013-08-09 10:51:00,
2013-08-09 05:06:00,53.1,48.0,29.76,NE,41,3.0,-999.0,82,-99.99,,,0.00,weatherlink.com 1.10,2013-08-09 11:06:00,
2013-08-09 05:22:00,52.9,48.0,29.77,NE,42,0.0,-999.0,83,-99.99,,,0.00,weatherlink.com 1.10,2013-08-09 11:22:00,
2013-08-09 05:37:00,52.9,48.0,29.78,NE,42,3.0,-999.0,82,-99.99,,,0.00,weatherlink.com 1.10,2013-08-09 11:37:00,
2013-08-09 05:53:00,52.6,48.0,29.79,NE,34,0.0,-999.0,83,-99.99,,,0.00,weatherlink.com 1.10,2013-08-09 11:53:00,
2013-08-09 06:06:00,52.5,48.0,29.79,NE,36,0.0,-999.0,83,-99.99,,,0.00,weatherlink.com 1.10,2013-08-09 12:06:00,
2013-08-09 06:21:00,52.3,48.0,29.80,NNE,29,0.0,-999.0,84,-99.99,,,0.00,weatherlink.com 1.10,2013-08-09 12:21:00,
2013-08-09 06:37:00,52.3,47.0,29.82,NE,40,5.0,-999.0,83,-99.99,,,0.00,weatherlink.com 1.10,2013-08-09 12:37:00,
2013-08-09 06:52:00,52.2,48.0,29.82,NE,46,4.0,-999.0,84,-99.99,,,0.00,weatherlink.com 1.10,2013-08-09 12:52:00,
2013-08-09 07:07:00,52.8,48.0,29.82,NE,51,3.0,-999.0,83,-99.99,,,0.00,weatherlink.com 1.10,2013-08-09 13:07:00,
2013-08-09 07:22:00,53.9,48.0,29.81,NNE,33,0.0,-999.0,81,-99.99,,,0.00,weatherlink.com 1.10,2013-08-09 13:22:00,
2013-08-09 07:37:00,56.6,49.0,29.82,North,1,2.0,-999.0,76,-99.99,,,0.00,weatherlink.com 1.10,2013-08-09 13:37:00,
2013-08-09 07:53:00,59.0,49.0,29.81,NNE,33,3.0,-999.0,70,-99.99,,,0.00,weatherlink.com 1.10,2013-08-09 13:53:00,
2013-08-09 08:23:00,63.4,49.0,29.79,North,11,2.0,-999.0,60,-99.99,,,0.00,weatherlink.com 1.10,2013-08-09 14:23:00,
2013-08-09 08:39:00,66.1,49.0,29.79,NE,53,5.0,-999.0,54,-99.99,,,0.00,weatherlink.com 1.10,2013-08-09 14:39:00,
2013-08-09 08:52:00,68.4,48.0,29.78,ENE,74,5.0,-999.0,49,-99.99,,,0.00,weatherlink.com 1.10,2013-08-09 14:52:00,
2013-08-09 09:08:00,68.3,46.0,29.78,NNE,30,5.0,-999.0,45,-99.99,,,0.00,weatherlink.com 1.10,2013-08-09 15:08:00,
2013-08-09 09:23:00,68.3,47.0,29.79,ENE,60,4.0,-999.0,46,-99.99,,,0.00,weatherlink.com 1.10,2013-08-09 15:23:00,
2013-08-09 09:38:00,69.9,47.0,29.79,East,86,6.0,-999.0,44,-99.99,,,0.00,weatherlink.com 1.10,2013-08-09 15:38:00,
2013-08-09 09:54:00,71.3,46.0,29.77,ENE,77,3.0,-999.0,41,-99.99,,,0.00,weatherlink.com 1.10,2013-08-09 15:54:00,
2013-08-09 10:09:00,72.8,46.0,29.78,ENE,60,4.0,-999.0,39,-99.99,,,0.00,weatherlink.com 1.10,2013-08-09 16:09:00,
2013-08-09 10:24:00,73.9,47.0,29.77,East,84,4.0,-999.0,38,-99.99,,,0.00,weatherlink.com 1.10,2013-08-09 16:24:00,
2013-08-09 10:39:00,74.4,46.0,29.80,SSE,166,3.0,-999.0,36,-99.99,,,0.00,weatherlink.com 1.10,2013-08-09 16:39:00,
2013-08-09 10:54:00,75.4,47.0,29.78,ENE,63,5.0,-999.0,36,-99.99,,,0.00,weatherlink.com 1.10,2013-08-09 16:54:00,
2013-08-09 11:09:00,76.3,46.0,29.77,ENE,75,5.0,-999.0,34,-99.99,,,0.00,weatherlink.com 1.10,2013-08-09 17:09:00,
2013-08-09 11:25:00,77.9,45.0,29.77,East,84,6.0,-999.0,31,-99.99,,,0.00,weatherlink.com 1.10,2013-08-09 17:25:00,
2013-08-09 11:40:00,77.7,44.0,29.77,East,81,5.0,-999.0,30,-99.99,,,0.00,weatherlink.com 1.10,2013-08-09 17:40:00,
2013-08-09 11:54:00,78.3,43.0,29.79,NNE,13,0.0,-999.0,28,-99.99,,,0.00,weatherlink.com 1.10,2013-08-09 17:54:00,
2013-08-09 12:09:00,78.8,43.0,29.77,ENE,60,2.0,-999.0,28,-99.99,,,0.00,weatherlink.com 1.10,2013-08-09 18:09:00,
2013-08-09 12:25:00,79.8,43.0,29.76,North,11,0.0,-999.0,27,-99.99,,,0.00,weatherlink.com 1.10,2013-08-09 18:25:00,
2013-08-09 12:39:00,81.6,43.0,29.75,East,84,2.0,-999.0,26,-99.99,,,0.00,weatherlink.com 1.10,2013-08-09 18:39:00,
2013-08-09 12:55:00,81.8,42.0,29.74,SSE,165,0.0,-999.0,24,-99.99,,,0.00,weatherlink.com 1.10,2013-08-09 18:55:00,
2013-08-09 13:10:00,82.4,42.0,29.73,NNE,23,5.0,-999.0,24,-99.99,,,0.00,weatherlink.com 1.10,2013-08-09 19:10:00,
2013-08-09 13:26:00,83.4,41.0,29.72,NNW,348,1.0,-999.0,22,-99.99,,,0.00,weatherlink.com 1.10,2013-08-09 19:26:00,
2013-08-09 13:39:00,83.0,42.0,29.71,NNW,330,4.0,-999.0,23,-99.99,,,0.00,weatherlink.com 1.10,2013-08-09 19:39:00,
2013-08-09 14:10:00,84.5,42.0,29.70,ENE,58,4.0,-999.0,22,-99.99,,,0.00,weatherlink.com 1.10,2013-08-09 20:10:00,
2013-08-09 14:26:00,84.9,42.0,29.70,SW,227,2.0,-999.0,22,-99.99,,,0.00,weatherlink.com 1.10,2013-08-09 20:26:00,
2013-08-09 14:41:00,84.5,40.0,29.69,West,261,0.0,-999.0,21,-99.99,,,0.00,weatherlink.com 1.10,2013-08-09 20:41:00,
2013-08-09 14:55:00,84.5,40.0,29.69,SW,220,7.0,-999.0,21,-99.99,,,0.00,weatherlink.com 1.10,2013-08-09 20:55:00,
2013-08-09 15:10:00,84.9,42.0,29.70,South,188,4.0,-999.0,22,-99.99,,,0.00,weatherlink.com 1.10,2013-08-09 21:10:00,
2013-08-09 15:25:00,84.3,40.0,29.70,South,179,0.0,-999.0,21,-99.99,,,0.00,weatherlink.com 1.10,2013-08-09 21:25:00,
2013-08-09 15:41:00,83.8,41.0,29.69,WSW,246,3.0,-999.0,22,-99.99,,,0.00,weatherlink.com 1.10,2013-08-09 21:41:00,
2013-08-09 15:56:00,85.5,39.0,29.69,South,188,3.0,-999.0,19,-99.99,,,0.00,weatherlink.com 1.10,2013-08-09 21:56:00,
2013-08-09 16:12:00,86.3,38.0,29.68,South,174,0.0,-999.0,18,-99.99,,,0.00,weatherlink.com 1.10,2013-08-09 22:12:00,
2013-08-09 16:27:00,85.7,40.0,29.68,SSE,151,2.0,-999.0,20,-99.99,,,0.00,weatherlink.com 1.10,2013-08-09 22:27:00,
2013-08-09 16:41:00,86.7,38.0,29.67,West,259,10.0,-999.0,18,-99.99,,,0.00,weatherlink.com 1.10,2013-08-09 22:41:00,
2013-08-09 16:56:00,86.3,37.0,29.67,SSW,204,5.0,-999.0,17,-99.99,,,0.00,weatherlink.com 1.10,2013-08-09 22:56:00,
2013-08-09 17:12:00,86.3,38.0,29.67,West,261,12.0,-999.0,18,-99.99,,,0.00,weatherlink.com 1.10,2013-08-09 23:12:00,
2013-08-09 17:27:00,84.9,37.0,29.68,WSW,253,7.0,-999.0,18,-99.99,,,0.00,weatherlink.com 1.10,2013-08-09 23:27:00,
2013-08-09 17:42:00,84.9,38.0,29.68,WSW,253,8.0,-999.0,19,-99.99,,,0.00,weatherlink.com 1.10,2013-08-09 23:42:00,
2013-08-09 17:56:00,84.7,37.0,29.68,West,276,7.0,-999.0,18,-99.99,,,0.00,weatherlink.com 1.10,2013-08-09 23:56:00,
2013-08-09 18:12:00,85.5,37.0,29.68,West,274,6.0,-999.0,18,-99.99,,,0.00,weatherlink.com 1.10,2013-08-10 00:12:00,
2013-08-09 18:27:00,85.3,37.0,29.67,WSW,256,12.0,-999.0,18,-99.99,,,0.00,weatherlink.com 1.10,2013-08-10 00:27:00,
2013-08-09 18:43:00,83.6,37.0,29.66,West,266,7.0,-999.0,19,-99.99,,,0.00,weatherlink.com 1.10,2013-08-10 00:43:00,
2013-08-09 18:58:00,83.0,38.0,29.68,WSW,255,1.0,-999.0,20,-99.99,,,0.00,weatherlink.com 1.10,2013-08-10 00:58:00,
2013-08-09 19:12:00,83.4,38.0,29.68,WSW,255,0.0,-999.0,20,-99.99,,,0.00,weatherlink.com 1.10,2013-08-10 01:12:00,
2013-08-09 19:27:00,83.4,37.0,29.69,WSW,252,1.0,-999.0,19,-99.99,,,0.00,weatherlink.com 1.10,2013-08-10 01:27:00,
2013-08-09 19:43:00,83.2,38.0,29.64,WSW,252,0.0,-999.0,20,-99.99,,,0.00,weatherlink.com 1.10,2013-08-10 01:43:00,
2013-08-09 19:58:00,81.8,36.0,29.65,WSW,252,0.0,-999.0,19,-99.99,,,0.00,weatherlink.com 1.10,2013-08-10 01:58:00,
2013-08-09 20:13:00,81.4,35.0,29.65,WSW,252,0.0,-999.0,19,-99.99,,,0.00,weatherlink.com 1.10,2013-08-10 02:13:00,
2013-08-09 20:28:00,77.7,41.0,29.65,ENE,67,2.0,-999.0,27,-99.99,,,0.00,weatherlink.com 1.10,2013-08-10 02:28:00,
2013-08-09 20:43:00,76.0,41.0,29.66,NNE,26,1.0,-999.0,29,-99.99,,,0.00,weatherlink.com 1.10,2013-08-10 02:43:00,
2013-08-09 20:58:00,74.9,43.0,29.66,East,99,3.0,-999.0,32,-99.99,,,0.00,weatherlink.com 1.10,2013-08-10 02:58:00,
2013-08-09 21:13:00,74.6,41.0,29.68,ESE,115,4.0,-999.0,30,-99.99,,,0.00,weatherlink.com 1.10,2013-08-10 03:13:00,
2013-08-09 21:28:00,74.2,42.0,29.68,East,100,5.0,-999.0,31,-99.99,,,0.00,weatherlink.com 1.10,2013-08-10 03:28:00,
2013-08-09 21:43:00,73.2,42.0,29.67,ESE,108,5.0,-999.0,32,-99.99,,,0.00,weatherlink.com 1.10,2013-08-10 03:43:00,
2013-08-09 21:58:00,72.8,43.0,29.68,ENE,77,0.0,-999.0,34,-99.99,,,0.00,weatherlink.com 1.10,2013-08-10 03:58:00,
2013-08-09 22:13:00,70.9,46.0,29.69,ENE,75,2.0,-999.0,41,-99.99,,,0.00,weatherlink.com 1.10,2013-08-10 04:13:00,
2013-08-09 22:28:00,69.6,46.0,29.71,NNE,29,0.0,-999.0,43,-99.99,,,0.00,weatherlink.com 1.10,2013-08-10 04:28:00,
2013-08-09 22:43:00,68.8,46.0,29.69,NNE,29,0.0,-999.0,44,-99.99,,,0.00,weatherlink.com 1.10,2013-08-10 04:43:00,
2013-08-09 22:58:00,67.3,46.0,29.69,NNE,29,4.0,-999.0,47,-99.99,,,0.00,weatherlink.com 1.10,2013-08-10 04:58:00,
2013-08-09 23:13:00,66.4,48.0,29.70,NNE,16,7.0,-999.0,51,-99.99,,,0.00,weatherlink.com 1.10,2013-08-10 05:13:00,
2013-08-09 23:28:00,66.3,47.0,29.72,NNE,14,0.0,-999.0,51,-99.99,,,0.00,weatherlink.com 1.10,2013-08-10 05:28:00,
2013-08-09 23:43:00,64.3,48.0,29.71,NNE,14,4.0,-999.0,55,-99.99,,,0.00,weatherlink.com 1.10,2013-08-10 05:43:00,
2013-08-09 23:58:00,64.5,48.0,29.72,NNE,13,6.0,-999.0,56,-99.99,,,0.00,weatherlink.com 1.10,2013-08-10 05:58:00,